sensor_id;sensor_type;location;lat;lon;timestamp;pressure;altitude;pressure_sealevel;temperature;humidity
4576;BME280;2300;51.874;8.430;2022-07-06T00:01:40;101485.88;;;15.28;75.05
4576;BME280;2300;51.874;8.430;2022-07-06T00:04:06;101481.06;;;15.24;75.97
4576;BME280;2300;51.874;8.430;2022-07-06T00:06:33;101480.81;;;15.25;75.17
4576;BME280;2300;51.874;8.430;2022-07-06T00:09:01;101458.75;;;15.02;75.60
4576;BME280;2300;51.874;8.430;2022-07-06T00:11:28;101495.19;;;15.11;75.54
4576;BME280;2300;51.874;8.430;2022-07-06T00:13:56;101496.63;;;14.90;76.65
4576;BME280;2300;51.874;8.430;2022-07-06T00:16:22;101492.41;;;14.87;77.02
4576;BME280;2300;51.874;8.430;2022-07-06T00:18:49;101489.06;;;14.74;77.16
4576;BME280;2300;51.874;8.430;2022-07-06T00:21:16;101471.50;;;14.68;76.88
4576;BME280;2300;51.874;8.430;2022-07-06T00:23:42;101488.09;;;14.80;77.07
4576;BME280;2300;51.874;8.430;2022-07-06T00:26:09;101489.91;;;14.74;77.25
4576;BME280;2300;51.874;8.430;2022-07-06T00:28:36;101484.97;;;14.64;77.63
4576;BME280;2300;51.874;8.430;2022-07-06T00:31:05;101487.84;;;14.58;78.29
4576;BME280;2300;51.874;8.430;2022-07-06T00:33:32;101495.19;;;14.52;78.02
4576;BME280;2300;51.874;8.430;2022-07-06T00:35:58;101487.13;;;14.39;78.73
4576;BME280;2300;51.874;8.430;2022-07-06T00:38:25;101503.13;;;14.49;78.54
4576;BME280;2300;51.874;8.430;2022-07-06T00:40:51;101491.22;;;14.48;78.08
4576;BME280;2300;51.874;8.430;2022-07-06T00:43:18;101492.78;;;14.44;79.35
4576;BME280;2300;51.874;8.430;2022-07-06T00:45:45;101493.38;;;14.35;78.76
4576;BME280;2300;51.874;8.430;2022-07-06T00:48:13;101496.13;;;14.35;79.09
4576;BME280;2300;51.874;8.430;2022-07-06T00:50:41;101502.97;;;14.32;78.55
4576;BME280;2300;51.874;8.430;2022-07-06T00:53:07;101503.59;;;14.34;78.08
4576;BME280;2300;51.874;8.430;2022-07-06T00:55:36;101501.88;;;14.21;78.32
4576;BME280;2300;51.874;8.430;2022-07-06T00:58:05;101504.13;;;14.13;78.88
4576;BME280;2300;51.874;8.430;2022-07-06T01:00:32;101473.53;;;13.85;78.88
4576;BME280;2300;51.874;8.430;2022-07-06T01:02:59;101512.19;;;14.14;79.03
4576;BME280;2300;51.874;8.430;2022-07-06T01:05:27;101475.97;;;13.93;79.05
4576;BME280;2300;51.874;8.430;2022-07-06T01:07:54;101510.72;;;14.12;78.92
4576;BME280;2300;51.874;8.430;2022-07-06T01:10:22;101507.25;;;14.16;78.84
4576;BME280;2300;51.874;8.430;2022-07-06T01:12:49;101498.13;;;14.16;78.48
4576;BME280;2300;51.874;8.430;2022-07-06T01:15:17;101483.03;;;14.00;78.86
4576;BME280;2300;51.874;8.430;2022-07-06T01:17:44;101499.06;;;14.10;79.57
4576;BME280;2300;51.874;8.430;2022-07-06T01:20:13;101505.69;;;14.20;78.81
4576;BME280;2300;51.874;8.430;2022-07-06T01:22:39;101517.00;;;14.19;78.58
4576;BME280;2300;51.874;8.430;2022-07-06T01:25:07;101513.63;;;14.17;78.89
4576;BME280;2300;51.874;8.430;2022-07-06T01:27:34;101478.09;;;13.91;78.97
4576;BME280;2300;51.874;8.430;2022-07-06T01:30:03;101513.50;;;14.12;78.81
4576;BME280;2300;51.874;8.430;2022-07-06T01:32:30;101502.00;;;13.97;79.90
4576;BME280;2300;51.874;8.430;2022-07-06T01:34:59;101496.66;;;14.02;79.86
4576;BME280;2300;51.874;8.430;2022-07-06T01:37:27;101503.28;;;14.12;79.02
4576;BME280;2300;51.874;8.430;2022-07-06T01:39:53;101491.03;;;14.08;79.57
4576;BME280;2300;51.874;8.430;2022-07-06T01:42:25;101490.78;;;14.10;79.49
4576;BME280;2300;51.874;8.430;2022-07-06T01:44:52;101501.59;;;14.11;79.52
4576;BME280;2300;51.874;8.430;2022-07-06T01:47:18;101494.66;;;14.09;79.18
4576;BME280;2300;51.874;8.430;2022-07-06T01:49:45;101475.78;;;14.06;79.19
4576;BME280;2300;51.874;8.430;2022-07-06T01:52:11;101489.72;;;14.11;79.33
4576;BME280;2300;51.874;8.430;2022-07-06T01:54:39;101498.13;;;14.16;79.70
4576;BME280;2300;51.874;8.430;2022-07-06T01:57:05;101493.66;;;14.03;80.17
4576;BME280;2300;51.874;8.430;2022-07-06T01:59:32;101500.75;;;14.11;79.96
4576;BME280;2300;51.874;8.430;2022-07-06T02:01:59;101498.00;;;14.11;80.81
4576;BME280;2300;51.874;8.430;2022-07-06T02:04:25;101497.28;;;14.15;80.58
4576;BME280;2300;51.874;8.430;2022-07-06T02:06:52;101462.75;;;13.95;80.21
4576;BME280;2300;51.874;8.430;2022-07-06T02:09:18;101502.47;;;14.23;80.12
4576;BME280;2300;51.874;8.430;2022-07-06T02:11:46;101498.25;;;14.21;79.80
4576;BME280;2300;51.874;8.430;2022-07-06T02:14:13;101495.38;;;14.16;80.07
4576;BME280;2300;51.874;8.430;2022-07-06T02:16:39;101491.53;;;14.17;79.88
4576;BME280;2300;51.874;8.430;2022-07-06T02:19:06;101507.75;;;14.13;80.51
4576;BME280;2300;51.874;8.430;2022-07-06T02:21:32;101496.91;;;14.12;80.54
4576;BME280;2300;51.874;8.430;2022-07-06T02:23:59;101501.50;;;14.18;79.84
4576;BME280;2300;51.874;8.430;2022-07-06T02:26:26;101511.63;;;14.24;80.52
4576;BME280;2300;51.874;8.430;2022-07-06T02:28:54;101511.47;;;14.19;80.57
4576;BME280;2300;51.874;8.430;2022-07-06T02:31:20;101495.72;;;14.08;79.96
4576;BME280;2300;51.874;8.430;2022-07-06T02:33:46;101505.47;;;14.22;80.49
4576;BME280;2300;51.874;8.430;2022-07-06T02:36:13;101501.97;;;14.15;80.21
4576;BME280;2300;51.874;8.430;2022-07-06T02:38:39;101504.84;;;14.20;80.23
4576;BME280;2300;51.874;8.430;2022-07-06T02:41:06;101505.47;;;14.22;80.11
4576;BME280;2300;51.874;8.430;2022-07-06T02:43:33;101504.84;;;14.20;80.56
4576;BME280;2300;51.874;8.430;2022-07-06T02:46:01;101507.28;;;14.28;79.97
4576;BME280;2300;51.874;8.430;2022-07-06T02:48:27;101514.97;;;14.26;80.41
4576;BME280;2300;51.874;8.430;2022-07-06T02:50:54;101509.44;;;14.26;79.94
4576;BME280;2300;51.874;8.430;2022-07-06T02:53:21;101504.84;;;14.20;80.05
4576;BME280;2300;51.874;8.430;2022-07-06T02:55:47;101505.97;;;14.19;80.52
4576;BME280;2300;51.874;8.430;2022-07-06T02:58:14;101487.56;;;14.13;80.69
4576;BME280;2300;51.874;8.430;2022-07-06T03:00:40;101499.31;;;14.20;80.70
4576;BME280;2300;51.874;8.430;2022-07-06T03:03:08;101492.59;;;14.16;81.07
4576;BME280;2300;51.874;8.430;2022-07-06T03:05:35;101489.13;;;14.09;80.91
4576;BME280;2300;51.874;8.430;2022-07-06T03:08:02;101506.41;;;14.16;81.15
4576;BME280;2300;51.874;8.430;2022-07-06T03:10:28;101505.81;;;14.14;81.53
4576;BME280;2300;51.874;8.430;2022-07-06T03:12:54;101499.81;;;14.17;81.13
4576;BME280;2300;51.874;8.430;2022-07-06T03:15:21;101513.53;;;14.23;81.23
4576;BME280;2300;51.874;8.430;2022-07-06T03:17:48;101517.38;;;14.22;80.88
4576;BME280;2300;51.874;8.430;2022-07-06T03:20:16;101521.09;;;14.28;80.59
4576;BME280;2300;51.874;8.430;2022-07-06T03:22:42;101525.16;;;14.14;80.58
4576;BME280;2300;51.874;8.430;2022-07-06T03:25:09;101526.59;;;14.16;80.98
4576;BME280;2300;51.874;8.430;2022-07-06T03:27:35;101531.28;;;14.16;81.11
4576;BME280;2300;51.874;8.430;2022-07-06T03:30:02;101521.66;;;14.07;81.33
4576;BME280;2300;51.874;8.430;2022-07-06T03:32:29;101523.13;;;13.91;80.71
4576;BME280;2300;51.874;8.430;2022-07-06T03:34:58;101531.00;;;14.06;80.97
4576;BME280;2300;51.874;8.430;2022-07-06T03:37:25;101537.00;;;14.03;81.05
4576;BME280;2300;51.874;8.430;2022-07-06T03:39:52;101535.94;;;14.04;80.94
4576;BME280;2300;51.874;8.430;2022-07-06T03:42:18;101539.22;;;13.94;80.48
4576;BME280;2300;51.874;8.430;2022-07-06T03:44:45;101533.19;;;13.86;81.34
4576;BME280;2300;51.874;8.430;2022-07-06T03:47:11;101532.19;;;13.80;81.06
4576;BME280;2300;51.874;8.430;2022-07-06T03:49:38;101533.97;;;13.74;81.61
4576;BME280;2300;51.874;8.430;2022-07-06T03:52:04;101534.44;;;13.71;81.25
4576;BME280;2300;51.874;8.430;2022-07-06T03:54:32;101543.50;;;13.60;81.75
4576;BME280;2300;51.874;8.430;2022-07-06T03:56:59;101535.94;;;13.56;81.42
4576;BME280;2300;51.874;8.430;2022-07-06T03:59:25;101536.47;;;13.46;81.69
4576;BME280;2300;51.874;8.430;2022-07-06T04:01:52;101532.94;;;13.39;82.37
4576;BME280;2300;51.874;8.430;2022-07-06T04:04:18;101531.13;;;13.33;82.37
4576;BME280;2300;51.874;8.430;2022-07-06T04:06:45;101532.03;;;13.27;82.74
4576;BME280;2300;51.874;8.430;2022-07-06T04:09:11;101540.44;;;13.32;82.88
4576;BME280;2300;51.874;8.430;2022-07-06T04:11:39;101555.66;;;13.41;82.79
4576;BME280;2300;51.874;8.430;2022-07-06T04:14:05;101551.13;;;13.47;82.52
4576;BME280;2300;51.874;8.430;2022-07-06T04:16:32;101539.38;;;13.33;83.08
4576;BME280;2300;51.874;8.430;2022-07-06T04:18:58;101549.88;;;13.43;82.90
4576;BME280;2300;51.874;8.430;2022-07-06T04:21:25;101544.50;;;13.48;83.27
4576;BME280;2300;51.874;8.430;2022-07-06T04:23:51;101544.44;;;13.54;83.11
4576;BME280;2300;51.874;8.430;2022-07-06T04:26:18;101546.13;;;13.55;82.50
4576;BME280;2300;51.874;8.430;2022-07-06T04:28:46;101534.31;;;13.48;82.80
4576;BME280;2300;51.874;8.430;2022-07-06T04:31:12;101551.03;;;13.53;83.18
4576;BME280;2300;51.874;8.430;2022-07-06T04:33:40;101540.97;;;13.59;82.84
4576;BME280;2300;51.874;8.430;2022-07-06T04:36:07;101546.63;;;13.64;83.10
4576;BME280;2300;51.874;8.430;2022-07-06T04:38:33;101535.84;;;13.62;83.08
4576;BME280;2300;51.874;8.430;2022-07-06T04:41:00;101546.22;;;13.78;82.92
4576;BME280;2300;51.874;8.430;2022-07-06T04:43:26;101547.25;;;13.96;82.91
4576;BME280;2300;51.874;8.430;2022-07-06T04:45:54;101548.56;;;14.11;81.79
4576;BME280;2300;51.874;8.430;2022-07-06T04:48:21;101539.38;;;14.41;81.42
4576;BME280;2300;51.874;8.430;2022-07-06T04:50:47;101520.28;;;14.39;80.73
4576;BME280;2300;51.874;8.430;2022-07-06T04:53:14;101523.69;;;14.64;79.98
4576;BME280;2300;51.874;8.430;2022-07-06T04:55:40;101544.34;;;14.97;78.95
4576;BME280;2300;51.874;8.430;2022-07-06T04:58:07;101549.88;;;15.20;78.76
4576;BME280;2300;51.874;8.430;2022-07-06T05:00:34;101556.06;;;15.50;77.71
4576;BME280;2300;51.874;8.430;2022-07-06T05:03:02;101555.31;;;15.67;77.30
4576;BME280;2300;51.874;8.430;2022-07-06T05:05:28;101554.22;;;15.96;76.38
4576;BME280;2300;51.874;8.430;2022-07-06T05:07:55;101556.94;;;16.19;75.26
4576;BME280;2300;51.874;8.430;2022-07-06T05:10:21;101560.50;;;16.31;74.60
4576;BME280;2300;51.874;8.430;2022-07-06T05:12:48;101558.47;;;16.27;74.74
4576;BME280;2300;51.874;8.430;2022-07-06T05:15:14;101548.59;;;16.48;75.26
4576;BME280;2300;51.874;8.430;2022-07-06T05:17:44;101555.09;;;16.58;73.80
4576;BME280;2300;51.874;8.430;2022-07-06T05:20:12;101557.81;;;16.70;73.63
4576;BME280;2300;51.874;8.430;2022-07-06T05:22:38;101533.38;;;16.67;72.34
4576;BME280;2300;51.874;8.430;2022-07-06T05:25:05;101551.16;;;16.88;72.50
4576;BME280;2300;51.874;8.430;2022-07-06T05:27:32;101551.84;;;16.78;72.89
4576;BME280;2300;51.874;8.430;2022-07-06T05:29:59;101562.03;;;16.89;72.67
4576;BME280;2300;51.874;8.430;2022-07-06T05:32:26;101562.00;;;17.06;73.29
4576;BME280;2300;51.874;8.430;2022-07-06T05:34:52;101563.13;;;17.27;72.22
4576;BME280;2300;51.874;8.430;2022-07-06T05:37:20;101556.56;;;17.33;71.84
4576;BME280;2300;51.874;8.430;2022-07-06T05:39:47;101562.00;;;17.44;71.63
4576;BME280;2300;51.874;8.430;2022-07-06T05:42:15;101560.41;;;17.70;69.91
4576;BME280;2300;51.874;8.430;2022-07-06T05:44:41;101559.94;;;18.00;69.45
4576;BME280;2300;51.874;8.430;2022-07-06T05:47:07;101553.84;;;18.30;69.36
4576;BME280;2300;51.874;8.430;2022-07-06T05:49:51;101559.50;;;18.40;68.70
4576;BME280;2300;51.874;8.430;2022-07-06T05:52:37;101562.38;;;18.50;67.92
4576;BME280;2300;51.874;8.430;2022-07-06T05:55:04;101546.00;;;18.22;68.43
4576;BME280;2300;51.874;8.430;2022-07-06T05:57:31;101565.28;;;18.33;69.58
4576;BME280;2300;51.874;8.430;2022-07-06T05:59:58;101566.09;;;18.61;68.60
4576;BME280;2300;51.874;8.430;2022-07-06T06:02:24;101561.28;;;18.51;67.85
4576;BME280;2300;51.874;8.430;2022-07-06T06:04:50;101566.53;;;18.21;68.43
4576;BME280;2300;51.874;8.430;2022-07-06T06:07:17;101569.91;;;17.96;68.17
4576;BME280;2300;51.874;8.430;2022-07-06T06:09:45;101565.41;;;17.73;69.37
4576;BME280;2300;51.874;8.430;2022-07-06T06:12:11;101562.19;;;17.38;70.07
4576;BME280;2300;51.874;8.430;2022-07-06T06:14:38;101563.75;;;17.12;70.58
4576;BME280;2300;51.874;8.430;2022-07-06T06:17:04;101576.91;;;16.83;71.90
4576;BME280;2300;51.874;8.430;2022-07-06T06:19:34;101571.75;;;16.75;71.81
4576;BME280;2300;51.874;8.430;2022-07-06T06:22:02;101581.09;;;16.86;73.32
4576;BME280;2300;51.874;8.430;2022-07-06T06:24:29;101588.47;;;16.97;72.49
4576;BME280;2300;51.874;8.430;2022-07-06T06:26:57;101588.81;;;17.17;72.27
4576;BME280;2300;51.874;8.430;2022-07-06T06:29:24;101593.75;;;17.32;71.95
4576;BME280;2300;51.874;8.430;2022-07-06T06:31:51;101598.75;;;17.73;72.35
4576;BME280;2300;51.874;8.430;2022-07-06T06:34:18;101599.88;;;17.72;70.52
4576;BME280;2300;51.874;8.430;2022-07-06T06:36:44;101600.31;;;17.64;70.65
4576;BME280;2300;51.874;8.430;2022-07-06T06:39:14;101598.34;;;17.43;71.55
4576;BME280;2300;51.874;8.430;2022-07-06T06:41:40;101605.38;;;17.12;71.42
4576;BME280;2300;51.874;8.430;2022-07-06T06:44:08;101601.59;;;16.85;71.83
4576;BME280;2300;51.874;8.430;2022-07-06T06:46:35;101605.53;;;16.55;72.59
4576;BME280;2300;51.874;8.430;2022-07-06T06:49:02;101589.94;;;16.38;73.94
4576;BME280;2300;51.874;8.430;2022-07-06T06:51:29;101606.75;;;16.31;74.00
4576;BME280;2300;51.874;8.430;2022-07-06T06:53:56;101605.41;;;16.33;74.36
4576;BME280;2300;51.874;8.430;2022-07-06T06:56:22;101602.44;;;16.23;74.60
4576;BME280;2300;51.874;8.430;2022-07-06T06:58:49;101607.09;;;16.34;74.46
4576;BME280;2300;51.874;8.430;2022-07-06T07:01:16;101609.25;;;16.32;74.05
4576;BME280;2300;51.874;8.430;2022-07-06T07:03:43;101614.81;;;16.32;74.46
4576;BME280;2300;51.874;8.430;2022-07-06T07:06:10;101615.41;;;16.34;74.00
4576;BME280;2300;51.874;8.430;2022-07-06T07:08:36;101616.50;;;16.33;74.18
4576;BME280;2300;51.874;8.430;2022-07-06T07:11:02;101615.66;;;16.33;74.14
4576;BME280;2300;51.874;8.430;2022-07-06T07:13:29;101618.88;;;16.58;74.61
4576;BME280;2300;51.874;8.430;2022-07-06T07:15:55;101606.41;;;16.72;74.27
4576;BME280;2300;51.874;8.430;2022-07-06T07:18:24;101614.53;;;16.79;72.86
4576;BME280;2300;51.874;8.430;2022-07-06T07:20:50;101603.16;;;16.64;72.91
4576;BME280;2300;51.874;8.430;2022-07-06T07:23:17;101624.44;;;16.75;73.72
4576;BME280;2300;51.874;8.430;2022-07-06T07:25:44;101628.91;;;16.76;73.86
4576;BME280;2300;51.874;8.430;2022-07-06T07:28:11;101629.16;;;16.91;73.79
4576;BME280;2300;51.874;8.430;2022-07-06T07:30:38;101617.78;;;17.04;73.13
4576;BME280;2300;51.874;8.430;2022-07-06T07:33:05;101619.56;;;17.32;72.71
4576;BME280;2300;51.874;8.430;2022-07-06T07:35:34;101597.19;;;17.39;71.16
4576;BME280;2300;51.874;8.430;2022-07-06T07:38:01;101633.41;;;17.49;71.01
4576;BME280;2300;51.874;8.430;2022-07-06T07:40:27;101629.81;;;17.48;71.42
4576;BME280;2300;51.874;8.430;2022-07-06T07:42:55;101625.13;;;17.32;70.96
4576;BME280;2300;51.874;8.430;2022-07-06T07:45:21;101622.97;;;17.17;70.24
4576;BME280;2300;51.874;8.430;2022-07-06T07:47:48;101633.22;;;17.17;71.71
4576;BME280;2300;51.874;8.430;2022-07-06T07:50:14;101631.03;;;17.19;71.32
4576;BME280;2300;51.874;8.430;2022-07-06T07:52:42;101618.38;;;16.95;71.30
4576;BME280;2300;51.874;8.430;2022-07-06T07:55:09;101627.16;;;17.03;70.91
4576;BME280;2300;51.874;8.430;2022-07-06T07:57:36;101641.13;;;17.08;71.99
4576;BME280;2300;51.874;8.430;2022-07-06T08:00:03;101634.75;;;17.08;72.11
4576;BME280;2300;51.874;8.430;2022-07-06T08:02:30;101625.66;;;17.12;71.81
4576;BME280;2300;51.874;8.430;2022-07-06T08:04:57;101640.09;;;17.31;72.17
4576;BME280;2300;51.874;8.430;2022-07-06T08:07:24;101637.66;;;17.35;71.25
4576;BME280;2300;51.874;8.430;2022-07-06T08:09:52;101628.31;;;17.41;71.57
4576;BME280;2300;51.874;8.430;2022-07-06T08:12:19;101623.44;;;17.31;71.14
4576;BME280;2300;51.874;8.430;2022-07-06T08:14:45;101621.78;;;17.30;71.57
4576;BME280;2300;51.874;8.430;2022-07-06T08:17:11;101620.66;;;17.31;70.60
4576;BME280;2300;51.874;8.430;2022-07-06T08:19:38;101619.06;;;17.35;71.29
4576;BME280;2300;51.874;8.430;2022-07-06T08:22:04;101621.84;;;17.35;70.42
4576;BME280;2300;51.874;8.430;2022-07-06T08:24:32;101627.69;;;17.55;70.80
4576;BME280;2300;51.874;8.430;2022-07-06T08:27:00;101626.31;;;17.58;69.80
4576;BME280;2300;51.874;8.430;2022-07-06T08:29:28;101635.38;;;17.70;70.45
4576;BME280;2300;51.874;8.430;2022-07-06T08:31:55;101630.44;;;17.72;69.48
4576;BME280;2300;51.874;8.430;2022-07-06T08:34:21;101622.28;;;17.66;68.54
4576;BME280;2300;51.874;8.430;2022-07-06T08:36:48;101606.56;;;17.54;68.53
4576;BME280;2300;51.874;8.430;2022-07-06T08:39:14;101622.09;;;17.72;68.10
4576;BME280;2300;51.874;8.430;2022-07-06T08:41:42;101632.22;;;17.83;69.21
4576;BME280;2300;51.874;8.430;2022-07-06T08:44:14;101618.31;;;17.83;65.92
4576;BME280;2300;51.874;8.430;2022-07-06T08:46:40;101629.25;;;17.68;67.68
4576;BME280;2300;51.874;8.430;2022-07-06T08:49:08;101613.94;;;17.66;67.96
4576;BME280;2300;51.874;8.430;2022-07-06T08:51:35;101620.44;;;18.20;70.84
4576;BME280;2300;51.874;8.430;2022-07-06T08:54:03;101604.16;;;18.87;67.34
4576;BME280;2300;51.874;8.430;2022-07-06T08:56:30;101613.72;;;19.38;64.92
4576;BME280;2300;51.874;8.430;2022-07-06T08:58:56;101602.22;;;19.24;63.01
4576;BME280;2300;51.874;8.430;2022-07-06T09:01:25;101615.63;;;18.91;63.03
4576;BME280;2300;51.874;8.430;2022-07-06T09:03:54;101613.59;;;18.54;63.87
4576;BME280;2300;51.874;8.430;2022-07-06T09:06:24;101613.16;;;18.14;62.84
4576;BME280;2300;51.874;8.430;2022-07-06T09:08:57;101619.44;;;17.82;64.09
4576;BME280;2300;51.874;8.430;2022-07-06T09:11:25;101606.88;;;17.58;65.62
4576;BME280;2300;51.874;8.430;2022-07-06T09:13:52;101626.78;;;17.50;66.58
4576;BME280;2300;51.874;8.430;2022-07-06T09:16:27;101622.09;;;17.34;68.88
4576;BME280;2300;51.874;8.430;2022-07-06T09:18:54;101628.75;;;17.16;67.49
4576;BME280;2300;51.874;8.430;2022-07-06T09:21:27;101630.38;;;17.12;67.49
4576;BME280;2300;51.874;8.430;2022-07-06T09:23:56;101625.56;;;17.07;68.14
4576;BME280;2300;51.874;8.430;2022-07-06T09:26:27;101624.63;;;17.02;68.64
4576;BME280;2300;51.874;8.430;2022-07-06T09:29:02;101628.59;;;16.89;67.89
4576;BME280;2300;51.874;8.430;2022-07-06T09:31:30;101636.22;;;16.82;68.29
4576;BME280;2300;51.874;8.430;2022-07-06T09:33:58;101631.59;;;16.71;69.72
4576;BME280;2300;51.874;8.430;2022-07-06T09:36:42;101640.44;;;16.68;70.63
4576;BME280;2300;51.874;8.430;2022-07-06T09:39:21;101633.34;;;16.60;71.79
4576;BME280;2300;51.874;8.430;2022-07-06T09:41:49;101582.81;;;16.25;71.27
4576;BME280;2300;51.874;8.430;2022-07-06T09:44:23;101627.72;;;16.55;73.34
4576;BME280;2300;51.874;8.430;2022-07-06T09:46:52;101638.97;;;16.65;74.05
4576;BME280;2300;51.874;8.430;2022-07-06T09:49:19;101639.06;;;16.70;73.29
4576;BME280;2300;51.874;8.430;2022-07-06T09:51:49;101628.91;;;16.76;74.23
4576;BME280;2300;51.874;8.430;2022-07-06T09:54:16;101627.00;;;16.93;73.25
4576;BME280;2300;51.874;8.430;2022-07-06T09:56:44;101633.22;;;17.17;72.46
4576;BME280;2300;51.874;8.430;2022-07-06T09:59:16;101620.41;;;17.33;71.42
4576;BME280;2300;51.874;8.430;2022-07-06T10:01:42;101625.44;;;17.74;70.66
4576;BME280;2300;51.874;8.430;2022-07-06T10:04:12;101629.28;;;18.12;72.59
4576;BME280;2300;51.874;8.430;2022-07-06T10:06:40;101630.09;;;18.34;68.49
4576;BME280;2300;51.874;8.430;2022-07-06T10:09:08;101625.22;;;18.24;67.35
4576;BME280;2300;51.874;8.430;2022-07-06T10:11:38;101616.84;;;18.19;68.84
4576;BME280;2300;51.874;8.430;2022-07-06T10:14:06;101623.72;;;18.12;68.20
4576;BME280;2300;51.874;8.430;2022-07-06T10:16:35;101622.84;;;17.89;67.44
4576;BME280;2300;51.874;8.430;2022-07-06T10:19:04;101624.88;;;17.72;68.97
4576;BME280;2300;51.874;8.430;2022-07-06T10:21:35;101616.44;;;17.67;67.16
4576;BME280;2300;51.874;8.430;2022-07-06T10:24:03;101616.00;;;17.53;66.95
4576;BME280;2300;51.874;8.430;2022-07-06T10:26:30;101600.97;;;17.33;66.83
4576;BME280;2300;51.874;8.430;2022-07-06T10:28:58;101619.25;;;17.29;67.53
4576;BME280;2300;51.874;8.430;2022-07-06T10:31:26;101619.25;;;17.29;68.32
4576;BME280;2300;51.874;8.430;2022-07-06T10:33:54;101624.66;;;17.18;68.54
4576;BME280;2300;51.874;8.430;2022-07-06T10:36:21;101617.34;;;17.12;67.68
4576;BME280;2300;51.874;8.430;2022-07-06T10:38:50;101614.72;;;17.06;68.82
4576;BME280;2300;51.874;8.430;2022-07-06T10:41:17;101618.50;;;17.16;68.41
4576;BME280;2300;51.874;8.430;2022-07-06T10:43:45;101619.44;;;17.05;68.65
4576;BME280;2300;51.874;8.430;2022-07-06T10:46:14;101625.66;;;17.12;68.02
4576;BME280;2300;51.874;8.430;2022-07-06T10:48:42;101627.66;;;17.17;68.46
4576;BME280;2300;51.874;8.430;2022-07-06T10:51:11;101626.91;;;17.22;68.65
4576;BME280;2300;51.874;8.430;2022-07-06T10:53:40;101618.09;;;17.25;69.32
4576;BME280;2300;51.874;8.430;2022-07-06T10:56:09;101622.88;;;17.29;67.62
4576;BME280;2300;51.874;8.430;2022-07-06T10:58:38;101619.72;;;17.42;66.82
4576;BME280;2300;51.874;8.430;2022-07-06T11:01:05;101612.97;;;17.55;68.15
4576;BME280;2300;51.874;8.430;2022-07-06T11:03:34;101613.41;;;17.69;67.03
4576;BME280;2300;51.874;8.430;2022-07-06T11:06:02;101614.34;;;17.96;68.54
4576;BME280;2300;51.874;8.430;2022-07-06T11:08:52;101621.44;;;18.09;66.08
4576;BME280;2300;51.874;8.430;2022-07-06T11:11:22;101602.47;;;18.00;65.47
4576;BME280;2300;51.874;8.430;2022-07-06T11:13:51;101612.34;;;18.13;66.60
4576;BME280;2300;51.874;8.430;2022-07-06T11:16:19;101605.41;;;18.42;65.96
4576;BME280;2300;51.874;8.430;2022-07-06T11:18:48;101610.38;;;18.67;65.62
4576;BME280;2300;51.874;8.430;2022-07-06T11:21:20;101612.41;;;18.77;64.13
4576;BME280;2300;51.874;8.430;2022-07-06T11:23:48;101604.06;;;19.09;64.04
4576;BME280;2300;51.874;8.430;2022-07-06T11:26:16;101596.94;;;19.70;63.28
4576;BME280;2300;51.874;8.430;2022-07-06T11:28:46;101596.53;;;20.08;59.11
4576;BME280;2300;51.874;8.430;2022-07-06T11:31:14;101594.22;;;19.85;58.06
4576;BME280;2300;51.874;8.430;2022-07-06T11:33:44;101583.81;;;19.65;58.30
4576;BME280;2300;51.874;8.430;2022-07-06T11:36:16;101589.31;;;19.55;60.27
4576;BME280;2300;51.874;8.430;2022-07-06T11:38:44;101589.25;;;19.45;59.09
4576;BME280;2300;51.874;8.430;2022-07-06T11:41:11;101580.81;;;19.30;58.76
4576;BME280;2300;51.874;8.430;2022-07-06T11:43:39;101591.31;;;19.18;59.78
4576;BME280;2300;51.874;8.430;2022-07-06T11:46:23;101587.03;;;19.00;60.01
4576;BME280;2300;51.874;8.430;2022-07-06T11:48:51;101583.88;;;18.92;60.75
4576;BME280;2300;51.874;8.430;2022-07-06T11:51:19;101590.00;;;18.89;60.34
4576;BME280;2300;51.874;8.430;2022-07-06T11:53:46;101574.44;;;18.93;61.14
4576;BME280;2300;51.874;8.430;2022-07-06T11:56:14;101594.72;;;19.25;60.01
4576;BME280;2300;51.874;8.430;2022-07-06T11:58:41;101593.69;;;19.41;58.31
4576;BME280;2300;51.874;8.430;2022-07-06T12:01:10;101582.66;;;19.61;57.59
4576;BME280;2300;51.874;8.430;2022-07-06T12:03:38;101573.69;;;19.49;59.53
4576;BME280;2300;51.874;8.430;2022-07-06T12:06:06;101586.09;;;19.74;59.00
4576;BME280;2300;51.874;8.430;2022-07-06T12:08:41;101576.13;;;19.88;59.88
4576;BME280;2300;51.874;8.430;2022-07-06T12:11:07;101580.69;;;20.24;59.98
4576;BME280;2300;51.874;8.430;2022-07-06T12:13:36;101579.63;;;20.66;57.34
4576;BME280;2300;51.874;8.430;2022-07-06T12:16:11;101573.47;;;20.94;56.65
4576;BME280;2300;51.874;8.430;2022-07-06T12:18:39;101564.25;;;21.14;56.71
4576;BME280;2300;51.874;8.430;2022-07-06T12:21:07;101562.28;;;21.34;55.36
4576;BME280;2300;51.874;8.430;2022-07-06T12:23:41;101557.28;;;21.11;56.42
4576;BME280;2300;51.874;8.430;2022-07-06T12:26:08;101557.03;;;20.82;55.45
4576;BME280;2300;51.874;8.430;2022-07-06T12:28:35;101550.31;;;20.63;57.55
4576;BME280;2300;51.874;8.430;2022-07-06T12:31:02;101556.16;;;20.36;56.09
4576;BME280;2300;51.874;8.430;2022-07-06T12:33:29;101548.34;;;20.38;57.33
4576;BME280;2300;51.874;8.430;2022-07-06T12:36:08;101556.75;;;20.74;58.63
4576;BME280;2300;51.874;8.430;2022-07-06T12:38:43;101547.25;;;20.95;54.57
4576;BME280;2300;51.874;8.430;2022-07-06T12:41:10;101534.09;;;21.11;55.20
4576;BME280;2300;51.874;8.430;2022-07-06T12:43:38;101541.91;;;21.29;54.70
4576;BME280;2300;51.874;8.430;2022-07-06T12:46:25;101537.19;;;20.89;55.39
4576;BME280;2300;51.874;8.430;2022-07-06T12:48:53;101531.38;;;20.75;56.76
4576;BME280;2300;51.874;8.430;2022-07-06T12:51:21;101529.69;;;20.74;56.79
4576;BME280;2300;51.874;8.430;2022-07-06T12:53:48;101527.44;;;20.86;56.99
4576;BME280;2300;51.874;8.430;2022-07-06T12:56:16;101524.38;;;20.93;54.96
4576;BME280;2300;51.874;8.430;2022-07-06T12:59:00;101531.59;;;21.04;55.04
4576;BME280;2300;51.874;8.430;2022-07-06T13:01:30;101525.44;;;21.12;55.38
4576;BME280;2300;51.874;8.430;2022-07-06T13:03:57;101538.84;;;21.10;55.57
4576;BME280;2300;51.874;8.430;2022-07-06T13:06:30;101492.53;;;20.84;52.45
4576;BME280;2300;51.874;8.430;2022-07-06T13:08:57;101522.88;;;21.31;56.85
4576;BME280;2300;51.874;8.430;2022-07-06T13:11:24;101523.34;;;21.58;53.66
4576;BME280;2300;51.874;8.430;2022-07-06T13:13:51;101525.00;;;21.64;52.59